createdAt,value
2022-12-17T00:38:36.247Z,61.97
2022-12-17T00:46:59.404Z,60.22
2022-12-17T00:49:44.714Z,55.47
2022-12-17T00:52:29.790Z,65.72
2022-12-17T00:55:14.794Z,56.72
2022-12-17T00:57:59.948Z,57.03
2022-12-17T01:00:44.770Z,66.03
2022-12-17T01:03:30.909Z,72.32
2022-12-17T01:06:19.266Z,72.18
2022-12-17T01:09:04.364Z,63.03
2022-12-17T01:11:49.273Z,65.00
2022-12-17T01:14:34.076Z,63.60
2022-12-17T01:17:19.324Z,63.33
2022-12-17T01:20:04.576Z,66.90
2022-12-17T01:22:49.412Z,66.10
2022-12-17T01:25:34.533Z,65.78
2022-12-17T01:28:19.416Z,59.35
2022-12-17T01:31:04.228Z,61.72
2022-12-17T01:33:49.218Z,63.90
2022-12-17T01:36:34.095Z,59.13
2022-12-17T01:39:18.935Z,59.67
2022-12-17T01:42:03.792Z,55.35
2022-12-17T01:44:57.695Z,58.92
2022-12-17T01:47:44.307Z,54.17
2022-12-17T01:50:29.703Z,54.97
2022-12-17T01:53:16.644Z,52.78
2022-12-17T01:56:01.950Z,67.38
2022-12-17T01:58:47.266Z,67.05
2022-12-17T02:01:32.062Z,66.82
2022-12-17T02:04:17.287Z,59.83
2022-12-17T02:07:17.974Z,57.28
2022-12-17T02:10:23.233Z,57.83
2022-12-17T02:13:14.569Z,66.47
2022-12-17T02:16:03.499Z,53.63
2022-12-17T02:18:50.857Z,50.63
2022-12-17T02:21:38.195Z,46.95
2022-12-17T02:24:41.887Z,51.97
2022-12-17T02:27:28.566Z,48.15
2022-12-17T02:30:15.502Z,50.08
2022-12-17T02:33:02.712Z,52.53
2022-12-17T02:35:55.493Z,57.45
2022-12-17T02:38:43.556Z,57.03
2022-12-17T02:41:36.497Z,52.10
2022-12-17T02:44:21.790Z,50.35
2022-12-17T02:47:07.458Z,52.05
2022-12-17T02:49:52.333Z,43.35
2022-12-17T02:52:38.316Z,43.28
2022-12-17T02:55:23.343Z,39.75
2022-12-17T02:58:08.204Z,43.63
2022-12-17T03:00:57.600Z,39.35
2022-12-17T03:03:47.368Z,39.58
2022-12-17T03:06:35.160Z,45.63
2022-12-17T03:09:20.236Z,40.63
2022-12-17T03:12:05.250Z,35.08
2022-12-17T03:14:50.231Z,36.65
2022-12-17T03:17:35.104Z,33.70
2022-12-17T03:20:20.173Z,33.85
2022-12-17T03:23:05.051Z,35.40
2022-12-17T03:25:49.790Z,37.95
2022-12-17T03:28:34.578Z,38.17
2022-12-17T03:31:19.606Z,37.60
2022-12-17T03:34:04.796Z,33.03
2022-12-17T03:36:49.564Z,30.50
2022-12-17T03:39:34.753Z,26.42
2022-12-17T03:42:19.568Z,29.55
2022-12-17T03:45:04.265Z,31.13
2022-12-17T03:47:49.078Z,26.15
2022-12-17T03:50:33.889Z,27.67
2022-12-17T03:53:21.381Z,32.88
2022-12-17T03:56:06.433Z,38.47
2022-12-17T03:58:51.288Z,44.85
2022-12-17T04:01:36.339Z,41.80
2022-12-17T04:04:21.245Z,67.53
2022-12-17T04:07:06.065Z,70.20
2022-12-17T04:09:50.839Z,73.93
2022-12-17T04:12:35.779Z,80.47
2022-12-17T04:15:20.706Z,73.55
2022-12-17T04:18:06.042Z,64.38
2022-12-17T04:20:50.917Z,69.13
2022-12-17T04:23:36.024Z,79.55
2022-12-17T04:26:21.411Z,65.80
2022-12-17T04:29:06.137Z,66.32
2022-12-17T04:31:51.091Z,64.28
2022-12-17T04:34:35.805Z,58.05
2022-12-17T04:37:20.649Z,44.72
2022-12-17T04:40:05.367Z,46.42
2022-12-17T04:42:50.419Z,40.55
2022-12-17T04:45:35.212Z,18.45
2022-12-17T04:48:23.499Z,16.52
2022-12-17T04:51:08.615Z,11.15
2022-12-17T04:53:53.312Z,9.75
2022-12-17T04:56:38.415Z,12.35
2022-12-17T04:59:23.178Z,10.45
2022-12-17T05:02:08.120Z,9.93
2022-12-17T05:04:53.281Z,9.00
2022-12-17T05:07:38.050Z,11.68
2022-12-17T05:10:23.370Z,11.73
2022-12-17T05:13:14.246Z,11.05
2022-12-17T05:16:06.833Z,10.13
2022-12-17T05:18:51.754Z,12.93
2022-12-17T05:21:36.724Z,15.75
2022-12-17T05:24:21.557Z,17.10
2022-12-17T05:27:06.333Z,15.75
2022-12-17T05:29:51.058Z,13.02
2022-12-17T05:32:35.769Z,15.23
2022-12-17T05:35:20.633Z,13.68
2022-12-17T05:38:05.662Z,18.48
2022-12-17T05:40:51.689Z,16.23
2022-12-17T05:43:37.002Z,18.60
2022-12-17T05:46:22.986Z,19.55
2022-12-17T05:49:08.102Z,23.55
2022-12-17T05:51:53.133Z,22.58
2022-12-17T05:54:38.284Z,28.38
2022-12-17T05:57:23.275Z,24.25
2022-12-17T06:00:08.301Z,26.77
2022-12-17T06:02:53.229Z,31.42
2022-12-17T06:05:38.291Z,31.08
2022-12-17T06:08:26.678Z,33.08
2022-12-17T06:11:11.953Z,27.08
2022-12-17T06:13:57.301Z,26.10
2022-12-17T06:16:42.409Z,26.88
2022-12-17T06:19:27.217Z,24.15
2022-12-17T06:22:12.073Z,26.45
2022-12-17T06:24:57.021Z,26.60
2022-12-17T06:27:41.937Z,23.42
2022-12-17T06:30:27.265Z,21.08
2022-12-17T06:33:21.022Z,17.30
2022-12-17T06:36:05.909Z,20.02
2022-12-17T06:38:50.681Z,20.02
2022-12-17T06:41:35.535Z,27.67
2022-12-17T06:44:20.450Z,28.60
2022-12-17T06:47:05.407Z,26.15
2022-12-17T06:49:50.336Z,27.85
2022-12-17T06:52:35.138Z,26.38
2022-12-17T06:55:20.244Z,26.05
2022-12-17T06:58:04.949Z,27.45
2022-12-17T07:00:49.850Z,27.25
2022-12-17T07:03:34.872Z,29.45
2022-12-17T07:06:20.288Z,32.90
2022-12-17T07:09:05.043Z,28.15
2022-12-17T07:11:49.956Z,28.13
2022-12-17T07:14:34.834Z,30.40
2022-12-17T07:17:19.680Z,29.08
2022-12-17T07:20:04.503Z,34.22
2022-12-17T07:22:49.265Z,28.88
2022-12-17T07:25:34.000Z,30.20
2022-12-17T07:28:18.766Z,25.55
2022-12-17T07:31:03.515Z,25.13
2022-12-17T07:33:48.799Z,27.17
2022-12-17T07:36:33.980Z,22.50
2022-12-17T07:39:18.864Z,28.30
2022-12-17T07:42:03.624Z,40.55
2022-12-17T07:44:48.479Z,47.45
2022-12-17T07:47:33.144Z,48.70
2022-12-17T07:50:17.958Z,47.45
2022-12-17T07:53:02.665Z,53.95
2022-12-17T07:55:47.706Z,58.15
2022-12-17T07:58:32.569Z,63.42
2022-12-17T08:01:20.365Z,60.67
2022-12-17T08:04:05.413Z,57.83
2022-12-17T08:06:50.221Z,66.68
2022-12-17T08:09:35.121Z,61.00
2022-12-17T08:12:20.036Z,59.17
2022-12-17T08:15:04.971Z,64.03
2022-12-17T08:17:50.042Z,56.58
2022-12-17T08:20:35.946Z,55.40
2022-12-17T08:23:28.365Z,59.10
2022-12-17T08:26:13.321Z,51.78
2022-12-17T08:28:58.457Z,52.53
2022-12-17T08:31:43.308Z,55.95
2022-12-17T08:34:28.045Z,54.95
2022-12-17T08:37:13.035Z,53.83
2022-12-17T08:39:57.804Z,55.65
2022-12-17T08:42:43.092Z,58.20
2022-12-17T08:45:28.000Z,59.58
2022-12-17T08:48:20.550Z,59.70
2022-12-17T08:51:06.104Z,55.15
2022-12-17T08:53:51.352Z,58.78
2022-12-17T08:56:36.814Z,53.70
2022-12-17T08:59:21.928Z,52.20
2022-12-17T09:02:07.762Z,53.15
2022-12-17T09:04:52.740Z,53.42
2022-12-17T09:07:37.596Z,61.00
2022-12-17T09:10:22.991Z,61.10
2022-12-17T09:13:08.245Z,69.40
2022-12-17T09:15:53.039Z,85.25
2022-12-17T09:18:41.539Z,67.45
2022-12-17T09:21:28.033Z,64.88
2022-12-17T09:24:12.891Z,68.50
2022-12-17T09:26:58.337Z,68.25
2022-12-17T09:29:43.287Z,60.80
2022-12-17T09:32:28.720Z,66.00
2022-12-17T09:35:13.836Z,80.50
2022-12-17T09:37:59.571Z,70.63
2022-12-17T09:40:44.452Z,66.63
2022-12-17T09:43:55.771Z,69.82
2022-12-17T09:46:59.262Z,73.15
2022-12-17T09:49:45.686Z,66.78
2022-12-17T09:52:33.827Z,83.07
2022-12-17T09:55:19.747Z,81.65
2022-12-17T09:58:06.441Z,74.07
2022-12-17T10:00:54.991Z,76.90
2022-12-17T10:03:45.591Z,74.60
2022-12-17T10:06:31.965Z,71.72
2022-12-17T10:09:18.522Z,74.63
2022-12-17T10:12:04.499Z,63.42
2022-12-17T10:14:49.608Z,65.88
2022-12-17T10:17:39.028Z,66.75
2022-12-17T10:20:48.505Z,67.97
2022-12-17T10:23:47.603Z,68.88
2022-12-17T10:26:44.420Z,67.40
2022-12-17T10:29:32.237Z,72.20
2022-12-17T10:32:19.371Z,63.75
2022-12-17T10:35:05.822Z,56.75
2022-12-17T10:37:53.436Z,52.90
2022-12-17T10:40:43.978Z,51.67
2022-12-17T10:43:42.071Z,65.80
2022-12-17T10:46:26.980Z,88.15
2022-12-17T10:49:22.265Z,57.53
2022-12-17T10:52:08.080Z,64.53
2022-12-17T10:54:53.870Z,57.53
2022-12-17T10:57:45.525Z,64.72
2022-12-17T11:00:50.879Z,53.33
2022-12-17T11:03:58.004Z,52.72
2022-12-17T11:06:47.909Z,53.40
2022-12-17T11:09:53.963Z,52.22
2022-12-17T11:12:41.854Z,57.50
2022-12-17T11:15:35.845Z,48.38
2022-12-17T11:18:21.736Z,51.13
2022-12-17T11:21:14.756Z,46.92
2022-12-17T11:24:02.117Z,47.92
2022-12-17T11:26:49.969Z,50.45
2022-12-17T11:29:35.798Z,56.90
2022-12-17T11:32:40.977Z,52.35
2022-12-17T11:35:25.886Z,57.67
2022-12-17T11:38:30.535Z,57.20
2022-12-17T11:41:26.513Z,58.20
2022-12-17T11:44:21.913Z,55.22
2022-12-17T11:47:14.069Z,56.35
2022-12-17T11:52:52.422Z,62.85
2022-12-17T11:55:47.201Z,61.83
2022-12-17T11:58:58.582Z,62.72
2022-12-17T12:02:02.137Z,59.60
2022-12-17T12:04:50.724Z,66.10
2022-12-17T12:07:38.789Z,67.45
2022-12-17T12:10:50.309Z,60.53
2022-12-17T12:14:09.481Z,61.67
2022-12-17T12:17:08.830Z,62.72
2022-12-17T12:20:05.063Z,56.80
2022-12-17T12:23:02.066Z,57.38
2022-12-17T12:25:47.804Z,61.20
2022-12-17T12:28:33.526Z,58.22
2022-12-17T12:31:28.002Z,69.93
2022-12-17T12:34:17.911Z,66.45
2022-12-17T12:37:04.363Z,66.22
2022-12-17T12:39:59.677Z,60.00
2022-12-17T12:42:48.906Z,66.15
2022-12-17T12:45:53.198Z,59.35
2022-12-17T12:48:49.549Z,57.92
2022-12-17T12:51:37.174Z,59.80
2022-12-17T12:54:39.919Z,62.65
2022-12-17T12:57:43.284Z,63.53
2022-12-17T13:00:45.393Z,63.22
2022-12-17T13:03:45.481Z,63.53
2022-12-17T13:06:31.892Z,62.95
2022-12-17T13:09:32.334Z,74.97
2022-12-17T13:12:00.780Z,63.13
2022-12-17T13:14:37.366Z,63.35
2022-12-17T13:17:16.820Z,63.92
2022-12-17T13:19:46.657Z,65.65
2022-12-17T13:22:21.931Z,64.22
2022-12-17T13:24:51.943Z,67.35
2022-12-17T13:27:31.195Z,66.38
2022-12-17T13:30:16.947Z,67.93
2022-12-17T13:32:52.109Z,67.47
2022-12-17T13:35:21.935Z,65.68
2022-12-17T13:38:07.099Z,71.57
2022-12-17T13:40:34.130Z,68.45
2022-12-17T13:43:00.540Z,69.97
2022-12-17T13:45:28.200Z,70.57
2022-12-17T13:47:55.795Z,73.70
2022-12-17T13:50:33.742Z,70.97
2022-12-17T13:53:12.188Z,59.80
2022-12-17T13:55:39.273Z,65.93
2022-12-17T13:58:05.679Z,77.38
2022-12-17T14:00:32.640Z,70.10
2022-12-17T14:03:09.883Z,73.22
2022-12-17T14:05:38.352Z,77.32
2022-12-17T14:08:06.238Z,71.13
2022-12-17T14:10:32.941Z,68.38
2022-12-17T14:13:11.266Z,67.63
2022-12-17T14:15:37.776Z,67.53
2022-12-17T14:18:05.964Z,72.60
2022-12-17T14:20:35.613Z,66.90
2022-12-17T14:23:09.235Z,67.65
2022-12-17T14:25:37.958Z,61.38
2022-12-17T14:28:21.725Z,65.80
2022-12-17T14:31:24.453Z,65.25
2022-12-17T14:33:36.832Z,72.25
2022-12-17T14:36:05.109Z,70.88
2022-12-17T14:38:38.524Z,67.68
2022-12-17T14:41:31.268Z,70.30
2022-12-17T14:46:26.100Z,69.45
2022-12-17T14:49:04.053Z,64.20
2022-12-17T14:51:31.077Z,66.45
2022-12-17T14:54:06.340Z,75.32
2022-12-17T14:56:33.419Z,69.45
2022-12-17T14:58:59.889Z,69.57
2022-12-17T15:01:27.160Z,71.93
2022-12-17T15:03:53.766Z,74.10
2022-12-17T15:06:21.810Z,61.45
2022-12-17T15:08:49.586Z,70.80
2022-12-17T15:11:20.907Z,74.88
2022-12-17T15:13:51.529Z,63.38
2022-12-17T15:16:23.202Z,64.03
2022-12-17T15:18:50.348Z,69.25
2022-12-17T15:21:17.921Z,68.75
2022-12-17T15:23:45.346Z,71.38
2022-12-17T15:26:11.790Z,72.13
2022-12-17T15:28:39.268Z,73.07
2022-12-17T15:31:05.995Z,74.82
2022-12-17T15:33:33.177Z,70.47
2022-12-17T15:35:59.700Z,79.18
2022-12-17T15:38:26.837Z,66.10
2022-12-17T15:40:53.510Z,64.10
2022-12-17T15:43:20.605Z,64.97
2022-12-17T15:45:48.271Z,60.38
2022-12-17T15:48:17.176Z,65.45
2022-12-17T15:50:43.927Z,65.35
2022-12-17T15:53:11.202Z,67.07
2022-12-17T15:55:38.344Z,71.70
2022-12-17T15:58:06.570Z,67.05
2022-12-17T16:00:33.541Z,70.95
2022-12-17T16:03:00.806Z,77.30
2022-12-17T16:05:28.185Z,65.65
2022-12-17T16:08:00.152Z,72.72
2022-12-17T16:10:26.652Z,68.13
2022-12-17T16:12:53.128Z,70.03
2022-12-17T16:15:20.230Z,62.35
2022-12-17T16:17:46.649Z,65.63
2022-12-17T16:20:13.792Z,71.72
2022-12-17T16:22:40.908Z,68.07
2022-12-17T16:25:08.263Z,67.50
2022-12-17T16:27:34.719Z,66.55
2022-12-17T16:30:01.974Z,72.13
2022-12-17T16:32:31.571Z,70.40
2022-12-17T16:35:03.199Z,69.18
2022-12-17T16:37:29.624Z,65.53
2022-12-17T16:39:59.976Z,70.47
2022-12-17T16:42:26.906Z,75.18
2022-12-17T16:44:54.100Z,70.45
2022-12-17T16:47:20.582Z,68.10
2022-12-17T16:49:50.443Z,72.75
2022-12-17T16:52:16.875Z,75.72
2022-12-17T16:54:44.524Z,66.07
2022-12-17T16:57:10.996Z,70.57
2022-12-17T16:59:38.115Z,68.72
2022-12-17T17:02:04.722Z,66.82
2022-12-17T17:04:32.206Z,68.43
2022-12-17T17:06:58.758Z,71.85
2022-12-17T17:09:25.601Z,72.43
2022-12-17T17:11:55.451Z,68.07
2022-12-17T17:14:21.954Z,71.00
2022-12-17T17:16:49.603Z,70.82
2022-12-17T17:19:16.714Z,67.20
2022-12-17T17:21:49.303Z,94.03
2022-12-17T17:24:20.729Z,72.10
2022-12-17T17:26:49.142Z,66.00
2022-12-17T17:29:15.625Z,76.40
2022-12-17T17:34:29.244Z,68.07
2022-12-17T17:36:56.453Z,68.22
2022-12-17T17:39:22.930Z,60.08
2022-12-17T17:41:50.035Z,71.25
2022-12-17T17:44:16.629Z,67.50
2022-12-17T17:46:44.011Z,71.72
2022-12-17T17:49:10.793Z,77.78
2022-12-17T17:54:28.583Z,58.33
2022-12-17T17:56:55.695Z,68.55
2022-12-17T17:59:29.166Z,67.75
2022-12-17T18:02:04.257Z,74.32
2022-12-17T18:04:31.121Z,58.47
2022-12-17T18:09:44.740Z,69.00
2022-12-17T18:12:30.253Z,68.88
2022-12-17T18:17:47.966Z,74.75
2022-12-17T18:20:15.733Z,68.22
2022-12-17T18:22:43.376Z,76.35
2022-12-17T18:25:10.524Z,66.75
2022-12-17T18:27:37.926Z,68.18
2022-12-17T18:30:04.569Z,71.22
2022-12-17T18:32:31.762Z,75.15
2022-12-17T18:34:58.307Z,64.28
2022-12-17T18:37:25.486Z,66.78
2022-12-17T18:39:51.941Z,63.70
2022-12-17T18:42:37.436Z,64.13
2022-12-17T18:45:04.123Z,69.20
2022-12-17T18:47:31.446Z,64.28
2022-12-17T18:49:57.865Z,63.33
2022-12-17T18:52:24.318Z,77.28
2022-12-17T18:54:51.527Z,65.53
2022-12-17T18:57:17.941Z,62.33
2022-12-17T18:59:45.091Z,66.78
2022-12-17T19:02:12.340Z,68.18
2022-12-17T19:04:39.718Z,77.13
2022-12-17T19:07:06.171Z,68.18
2022-12-17T19:09:36.772Z,71.40
2022-12-17T19:12:04.459Z,74.65
2022-12-17T19:14:31.621Z,76.35
2022-12-17T19:16:58.158Z,63.28
2022-12-17T19:19:26.054Z,61.97
2022-12-17T19:21:54.931Z,58.05
2022-12-17T19:24:22.755Z,65.85
2022-12-17T19:26:49.696Z,63.20
2022-12-17T19:29:17.853Z,67.63
2022-12-17T19:31:44.591Z,65.25
2022-12-17T19:34:13.305Z,61.58
2022-12-17T19:36:40.380Z,65.47
2022-12-17T19:39:08.894Z,62.75
2022-12-17T19:41:35.392Z,64.43
2022-12-17T19:44:04.175Z,66.38
2022-12-17T19:46:31.513Z,65.13
2022-12-17T19:48:58.699Z,65.53
2022-12-17T19:51:26.775Z,75.90
2022-12-17T19:53:55.037Z,68.45
2022-12-17T19:56:25.681Z,68.15
2022-12-17T19:58:54.112Z,69.15
2022-12-17T20:01:26.989Z,63.42
2022-12-17T20:03:54.516Z,66.95
2022-12-17T20:06:22.966Z,79.38
2022-12-17T20:08:49.494Z,64.95
2022-12-17T20:11:36.357Z,62.72
2022-12-17T20:14:05.939Z,65.53
2022-12-17T20:16:34.494Z,60.70
2022-12-17T20:19:02.715Z,69.13
2022-12-17T20:21:32.077Z,81.43
2022-12-17T20:23:58.512Z,78.88
2022-12-17T20:26:26.246Z,57.65
2022-12-17T20:28:52.834Z,65.75
2022-12-17T20:31:20.150Z,66.85
2022-12-17T20:33:46.687Z,79.97
2022-12-17T20:36:15.826Z,71.88
2022-12-17T20:38:43.105Z,62.42
2022-12-17T20:41:20.613Z,67.00
2022-12-17T20:43:47.436Z,63.70
2022-12-17T20:46:15.897Z,64.50
2022-12-17T20:48:43.120Z,63.88
2022-12-17T20:51:15.871Z,65.45
2022-12-17T20:53:44.293Z,60.80
2022-12-17T20:56:15.301Z,61.28
2022-12-17T20:58:42.587Z,54.40
2022-12-17T21:01:12.211Z,66.70
2022-12-17T21:03:39.830Z,78.15
2022-12-17T21:06:08.761Z,73.22
2022-12-17T21:08:35.678Z,69.85
2022-12-17T21:11:03.333Z,68.93
2022-12-17T21:13:30.069Z,73.93
2022-12-17T21:16:01.038Z,69.63
2022-12-17T21:18:28.848Z,56.43
2022-12-17T21:21:06.438Z,72.22
2022-12-17T21:23:34.394Z,77.00
2022-12-17T21:26:02.902Z,77.72
2022-12-17T21:28:36.794Z,67.93
2022-12-17T21:31:04.067Z,72.63
2022-12-17T21:33:31.355Z,73.82
2022-12-17T21:35:59.286Z,66.85
2022-12-17T21:38:26.493Z,70.63
2022-12-17T21:40:52.977Z,65.00
2022-12-17T21:43:20.144Z,70.00
2022-12-17T21:45:46.832Z,73.13
2022-12-17T21:48:15.676Z,75.38
2022-12-17T21:50:43.133Z,69.63
2022-12-17T21:53:11.178Z,71.57
2022-12-17T21:55:37.785Z,69.78
2022-12-17T21:58:05.759Z,69.82
2022-12-17T22:00:32.232Z,67.07
2022-12-17T22:03:00.056Z,69.75
2022-12-17T22:05:26.893Z,74.32
2022-12-17T22:07:54.158Z,60.35
2022-12-17T22:10:47.256Z,66.90
2022-12-17T22:13:27.945Z,63.88
2022-12-17T22:15:54.671Z,64.72
2022-12-17T22:18:21.789Z,69.75
2022-12-17T22:20:59.649Z,66.85
2022-12-17T22:23:27.623Z,66.78
2022-12-17T22:25:54.300Z,67.35
2022-12-17T22:28:20.866Z,64.10
2022-12-17T22:31:06.582Z,70.43
2022-12-17T22:34:02.699Z,55.63
2022-12-17T22:39:06.784Z,62.97
2022-12-17T22:42:14.440Z,70.47
2022-12-17T22:44:41.785Z,70.18
2022-12-17T22:45:08.619Z,70.22
2022-12-17T22:47:35.945Z,66.28
2022-12-17T22:50:03.023Z,69.22
2022-12-17T22:52:29.907Z,60.97
2022-12-17T22:54:57.542Z,61.03
2022-12-17T22:57:37.465Z,68.70
2022-12-17T23:00:15.050Z,65.65
2022-12-17T23:02:41.596Z,66.53
2022-12-17T23:05:08.342Z,66.47
2022-12-17T23:07:35.003Z,65.22
2022-12-17T23:10:01.422Z,62.13
2022-12-17T23:12:46.650Z,65.25
2022-12-17T23:15:13.065Z,65.78
2022-12-17T23:17:39.587Z,65.38
2022-12-17T23:20:06.262Z,68.85
2022-12-17T23:22:32.758Z,64.88
2022-12-17T23:24:59.210Z,59.85
2022-12-17T23:27:25.769Z,61.65
2022-12-17T23:29:52.284Z,64.03
2022-12-17T23:32:18.807Z,61.35
2022-12-17T23:34:45.232Z,62.38
2022-12-17T23:37:11.718Z,63.10
2022-12-17T23:39:38.219Z,61.85
2022-12-17T23:42:04.782Z,57.72
2022-12-17T23:44:31.287Z,66.40
2022-12-17T23:46:57.842Z,60.80
2022-12-17T23:49:24.388Z,60.80
2022-12-17T23:51:50.847Z,58.13
2022-12-17T23:54:17.270Z,62.78
2022-12-17T23:56:45.063Z,59.38
2022-12-17T23:59:11.629Z,51.60
